Terminal Aerodrome Forecast
Issued by NWS Wilmington, OH

Current Version | Previous Version | Graphics & Text | Print | Product List | Glossary On
Versions: 1 2 3 4 5 6 7 8 9 10 11 12 13 14 15 16 17 18 19
000
FTUS41 KILN 081100
TAFDAY
TAF
KDAY 081120Z 0812/0912 21010KT P6SM SCT040 BKN100
      TEMPO 0812/0814 21012G20KT 2SM TSRA BR OVC015CB
     FM081400 22012G24KT P6SM BKN035
     FM082000 24014G26KT P6SM VCTS BKN035CB
     FM082300 27009KT P6SM BKN040
     FM090600 28005KT P6SM SCT040
      TEMPO 0909/0912 4SM BR SCT005=

USA.gov is the U.S. government's official web portal to all federal, state and local government web resources and services.